sensor_id;sensor_type;location;lat;lon;timestamp;temperature;humidity
30467;DHT22;17258;52.560;13.046;2022-12-28T00:01:51;9.00;68.30
30467;DHT22;17258;52.560;13.046;2022-12-28T00:11:52;9.10;68.40
30467;DHT22;17258;52.560;13.046;2022-12-28T00:21:53;9.20;68.40
30467;DHT22;17258;52.560;13.046;2022-12-28T00:31:53;9.30;68.40
30467;DHT22;17258;52.560;13.046;2022-12-28T00:41:54;9.40;68.40
30467;DHT22;17258;52.560;13.046;2022-12-28T00:51:54;9.40;68.20
30467;DHT22;17258;52.560;13.046;2022-12-28T01:01:55;9.50;68.20
30467;DHT22;17258;52.560;13.046;2022-12-28T01:11:56;9.60;68.20
30467;DHT22;17258;52.560;13.046;2022-12-28T01:21:56;9.60;68.00
30467;DHT22;17258;52.560;13.046;2022-12-28T01:31:57;9.70;68.00
30467;DHT22;17258;52.560;13.046;2022-12-28T01:41:59;9.70;68.00
30467;DHT22;17258;52.560;13.046;2022-12-28T01:52:14;9.70;67.90
30467;DHT22;17258;52.560;13.046;2022-12-28T02:02:19;9.80;67.80
30467;DHT22;17258;52.560;13.046;2022-12-28T02:12:21;9.50;68.00
30467;DHT22;17258;52.560;13.046;2022-12-28T02:33:28;9.60;67.20
30467;DHT22;17258;52.560;13.046;2022-12-28T02:43:35;9.60;67.40
30467;DHT22;17258;52.560;13.046;2022-12-28T02:53:52;9.60;67.40
30467;DHT22;17258;52.560;13.046;2022-12-28T03:04:25;9.50;67.30
30467;DHT22;17258;52.560;13.046;2022-12-28T03:14:36;9.50;67.30
30467;DHT22;17258;52.560;13.046;2022-12-28T03:24:42;9.20;67.60
30467;DHT22;17258;52.560;13.046;2022-12-28T03:35:03;9.40;67.50
30467;DHT22;17258;52.560;13.046;2022-12-28T03:55:23;9.40;67.50
30467;DHT22;17258;52.560;13.046;2022-12-28T04:05:24;9.40;67.60
30467;DHT22;17258;52.560;13.046;2022-12-28T04:15:25;9.30;67.40
30467;DHT22;17258;52.560;13.046;2022-12-28T04:25:26;9.30;67.40
30467;DHT22;17258;52.560;13.046;2022-12-28T04:35:27;9.40;67.40
30467;DHT22;17258;52.560;13.046;2022-12-28T04:45:27;9.30;67.40
30467;DHT22;17258;52.560;13.046;2022-12-28T04:55:28;9.30;67.40
30467;DHT22;17258;52.560;13.046;2022-12-28T05:05:29;9.30;67.40
30467;DHT22;17258;52.560;13.046;2022-12-28T05:15:30;9.30;67.40
30467;DHT22;17258;52.560;13.046;2022-12-28T05:25:30;9.30;67.40
30467;DHT22;17258;52.560;13.046;2022-12-28T05:35:31;9.30;67.50
30467;DHT22;17258;52.560;13.046;2022-12-28T05:45:31;9.30;67.50
30467;DHT22;17258;52.560;13.046;2022-12-28T05:55:32;9.40;67.50
30467;DHT22;17258;52.560;13.046;2022-12-28T06:05:33;9.40;67.50
30467;DHT22;17258;52.560;13.046;2022-12-28T06:15:34;9.40;67.40
30467;DHT22;17258;52.560;13.046;2022-12-28T06:25:36;9.50;67.50
30467;DHT22;17258;52.560;13.046;2022-12-28T06:35:40;9.60;67.60
30467;DHT22;17258;52.560;13.046;2022-12-28T06:45:40;9.60;67.50
30467;DHT22;17258;52.560;13.046;2022-12-28T06:55:41;9.70;67.50
30467;DHT22;17258;52.560;13.046;2022-12-28T07:05:42;9.80;67.50
30467;DHT22;17258;52.560;13.046;2022-12-28T07:15:43;9.80;67.40
30467;DHT22;17258;52.560;13.046;2022-12-28T07:25:43;9.80;67.50
30467;DHT22;17258;52.560;13.046;2022-12-28T07:35:44;9.80;67.50
30467;DHT22;17258;52.560;13.046;2022-12-28T07:45:44;9.80;67.60
30467;DHT22;17258;52.560;13.046;2022-12-28T07:55:54;9.80;67.70
30467;DHT22;17258;52.560;13.046;2022-12-28T08:06:11;9.90;67.90
30467;DHT22;17258;52.560;13.046;2022-12-28T08:16:19;9.90;68.00
30467;DHT22;17258;52.560;13.046;2022-12-28T08:26:32;10.00;68.00
30467;DHT22;17258;52.560;13.046;2022-12-28T08:36:34;10.00;68.20
30467;DHT22;17258;52.560;13.046;2022-12-28T08:46:35;10.10;68.30
30467;DHT22;17258;52.560;13.046;2022-12-28T08:56:38;10.20;68.50
30467;DHT22;17258;52.560;13.046;2022-12-28T09:06:39;10.40;68.60
30467;DHT22;17258;52.560;13.046;2022-12-28T09:16:40;10.50;68.60
30467;DHT22;17258;52.560;13.046;2022-12-28T09:26:40;10.60;68.50
30467;DHT22;17258;52.560;13.046;2022-12-28T09:36:42;10.80;68.50
30467;DHT22;17258;52.560;13.046;2022-12-28T09:46:52;10.90;68.50
30467;DHT22;17258;52.560;13.046;2022-12-28T09:57:01;11.00;68.50
30467;DHT22;17258;52.560;13.046;2022-12-28T10:07:02;11.20;68.50
30467;DHT22;17258;52.560;13.046;2022-12-28T10:17:02;11.30;68.40
30467;DHT22;17258;52.560;13.046;2022-12-28T10:27:09;11.40;68.30
30467;DHT22;17258;52.560;13.046;2022-12-28T10:37:14;11.50;68.20
30467;DHT22;17258;52.560;13.046;2022-12-28T10:47:28;11.50;68.20
30467;DHT22;17258;52.560;13.046;2022-12-28T10:57:30;11.60;68.40
30467;DHT22;17258;52.560;13.046;2022-12-28T11:07:36;11.70;68.50
30467;DHT22;17258;52.560;13.046;2022-12-28T11:17:38;11.80;68.70
30467;DHT22;17258;52.560;13.046;2022-12-28T11:27:39;11.90;68.70
30467;DHT22;17258;52.560;13.046;2022-12-28T11:37:48;12.10;68.70
30467;DHT22;17258;52.560;13.046;2022-12-28T12:08:41;12.40;68.80
30467;DHT22;17258;52.560;13.046;2022-12-28T12:18:51;12.60;68.80
30467;DHT22;17258;52.560;13.046;2022-12-28T12:29:02;12.70;69.00
30467;DHT22;17258;52.560;13.046;2022-12-28T12:39:21;12.90;69.00
30467;DHT22;17258;52.560;13.046;2022-12-28T12:49:32;13.10;68.60
30467;DHT22;17258;52.560;13.046;2022-12-28T13:09:58;13.40;68.60
30467;DHT22;17258;52.560;13.046;2022-12-28T13:20:30;13.50;68.20
30467;DHT22;17258;52.560;13.046;2022-12-28T13:30:31;13.50;67.90
30467;DHT22;17258;52.560;13.046;2022-12-28T13:40:33;13.70;68.20
30467;DHT22;17258;52.560;13.046;2022-12-28T13:50:36;13.70;68.10
30467;DHT22;17258;52.560;13.046;2022-12-28T14:00:45;13.80;67.80
30467;DHT22;17258;52.560;13.046;2022-12-28T14:10:46;13.80;67.70
30467;DHT22;17258;52.560;13.046;2022-12-28T14:20:57;13.70;67.50
30467;DHT22;17258;52.560;13.046;2022-12-28T14:31:00;13.70;67.30
30467;DHT22;17258;52.560;13.046;2022-12-28T14:41:03;13.70;68.10
30467;DHT22;17258;52.560;13.046;2022-12-28T15:01:13;13.60;67.40
30467;DHT22;17258;52.560;13.046;2022-12-28T15:11:20;13.60;67.50
30467;DHT22;17258;52.560;13.046;2022-12-28T15:21:22;13.60;67.30
30467;DHT22;17258;52.560;13.046;2022-12-28T15:31:23;13.50;67.10
30467;DHT22;17258;52.560;13.046;2022-12-28T15:41:23;13.40;67.00
30467;DHT22;17258;52.560;13.046;2022-12-28T15:51:44;13.30;67.00
30467;DHT22;17258;52.560;13.046;2022-12-28T16:01:48;13.20;67.10
30467;DHT22;17258;52.560;13.046;2022-12-28T16:11:48;13.10;67.40
30467;DHT22;17258;52.560;13.046;2022-12-28T16:21:49;13.10;67.50
30467;DHT22;17258;52.560;13.046;2022-12-28T16:31:50;13.00;67.60
30467;DHT22;17258;52.560;13.046;2022-12-28T16:41:52;13.10;67.70
30467;DHT22;17258;52.560;13.046;2022-12-28T16:51:52;13.00;67.70
30467;DHT22;17258;52.560;13.046;2022-12-28T17:01:55;13.10;67.80
30467;DHT22;17258;52.560;13.046;2022-12-28T17:11:55;13.20;67.70
30467;DHT22;17258;52.560;13.046;2022-12-28T17:21:56;13.20;67.70
30467;DHT22;17258;52.560;13.046;2022-12-28T17:31:57;13.20;67.70
30467;DHT22;17258;52.560;13.046;2022-12-28T17:41:57;13.20;67.60
30467;DHT22;17258;52.560;13.046;2022-12-28T17:51:58;13.20;67.60
30467;DHT22;17258;52.560;13.046;2022-12-28T18:01:59;13.20;67.60
30467;DHT22;17258;52.560;13.046;2022-12-28T18:12:00;13.20;67.50
30467;DHT22;17258;52.560;13.046;2022-12-28T18:22:01;13.30;67.60
30467;DHT22;17258;52.560;13.046;2022-12-28T18:32:02;13.20;67.50
30467;DHT22;17258;52.560;13.046;2022-12-28T18:42:03;13.30;67.50
30467;DHT22;17258;52.560;13.046;2022-12-28T18:52:04;13.30;67.40
30467;DHT22;17258;52.560;13.046;2022-12-28T19:02:04;13.30;67.30
30467;DHT22;17258;52.560;13.046;2022-12-28T19:12:05;13.30;67.20
30467;DHT22;17258;52.560;13.046;2022-12-28T19:22:06;13.20;67.20
30467;DHT22;17258;52.560;13.046;2022-12-28T19:32:06;13.20;67.20
30467;DHT22;17258;52.560;13.046;2022-12-28T19:42:07;13.10;67.20
30467;DHT22;17258;52.560;13.046;2022-12-28T19:52:08;13.00;67.30
30467;DHT22;17258;52.560;13.046;2022-12-28T20:02:10;13.00;67.50
30467;DHT22;17258;52.560;13.046;2022-12-28T20:12:11;13.00;67.50
30467;DHT22;17258;52.560;13.046;2022-12-28T20:22:11;12.90;67.50
30467;DHT22;17258;52.560;13.046;2022-12-28T20:32:12;12.80;67.50
30467;DHT22;17258;52.560;13.046;2022-12-28T20:42:13;12.80;67.60
30467;DHT22;17258;52.560;13.046;2022-12-28T20:52:32;12.80;67.70
30467;DHT22;17258;52.560;13.046;2022-12-28T21:02:33;12.70;67.70
30467;DHT22;17258;52.560;13.046;2022-12-28T21:12:33;12.70;67.70
30467;DHT22;17258;52.560;13.046;2022-12-28T21:22:34;12.70;67.70
30467;DHT22;17258;52.560;13.046;2022-12-28T21:32:35;12.60;67.80
30467;DHT22;17258;52.560;13.046;2022-12-28T21:42:36;12.60;67.80
30467;DHT22;17258;52.560;13.046;2022-12-28T21:52:37;12.60;67.80
30467;DHT22;17258;52.560;13.046;2022-12-28T22:02:37;12.60;67.80
30467;DHT22;17258;52.560;13.046;2022-12-28T22:12:56;12.60;67.90
30467;DHT22;17258;52.560;13.046;2022-12-28T22:22:59;12.70;68.00
30467;DHT22;17258;52.560;13.046;2022-12-28T22:33:00;12.70;67.90
30467;DHT22;17258;52.560;13.046;2022-12-28T22:43:00;12.80;68.70
30467;DHT22;17258;52.560;13.046;2022-12-28T22:53:01;12.90;68.00
30467;DHT22;17258;52.560;13.046;2022-12-28T23:03:02;12.90;67.90
30467;DHT22;17258;52.560;13.046;2022-12-28T23:13:05;13.00;67.90
30467;DHT22;17258;52.560;13.046;2022-12-28T23:23:07;13.00;67.80
30467;DHT22;17258;52.560;13.046;2022-12-28T23:33:43;13.00;67.90
30467;DHT22;17258;52.560;13.046;2022-12-28T23:43:44;13.00;67.90
30467;DHT22;17258;52.560;13.046;2022-12-28T23:53:45;13.00;67.90
